createdAt,value
2018-05-24T00:00:27.189Z,19.66
2018-05-24T00:01:27.185Z,19.66
2018-05-24T00:02:27.224Z,19.78
2018-05-24T00:03:27.269Z,19.79
2018-05-24T00:04:48.338Z,19.87
2018-05-24T00:05:27.321Z,19.74
2018-05-24T00:06:27.350Z,19.79
2018-05-24T00:07:27.379Z,19.71
2018-05-24T00:08:27.414Z,19.74
2018-05-24T00:09:27.452Z,19.75
2018-05-24T00:10:48.485Z,19.71
2018-05-24T00:11:27.498Z,19.70
2018-05-24T00:12:27.582Z,19.72
2018-05-24T00:13:27.577Z,19.63
2018-05-24T00:14:27.732Z,19.57
2018-05-24T00:15:27.620Z,19.63
2018-05-24T00:16:48.666Z,19.72
2018-05-24T00:17:27.672Z,19.59
2018-05-24T00:18:27.683Z,19.53
2018-05-24T00:19:27.727Z,19.39
2018-05-24T00:20:27.761Z,19.41
2018-05-24T00:21:27.811Z,19.47
2018-05-24T00:22:48.841Z,19.39
2018-05-24T00:23:27.862Z,19.48
2018-05-24T00:24:27.903Z,19.48
2018-05-24T00:25:27.908Z,19.47
2018-05-24T00:26:27.917Z,19.35
2018-05-24T00:27:27.949Z,19.27
2018-05-24T00:28:49.016Z,19.24
2018-05-24T00:29:28.004Z,19.27
2018-05-24T00:30:28.049Z,19.32
2018-05-24T00:31:28.074Z,19.32
2018-05-24T00:32:28.090Z,19.24
2018-05-24T00:33:28.131Z,19.29
2018-05-24T00:34:49.170Z,19.29
2018-05-24T00:35:28.221Z,19.29
2018-05-24T00:36:28.295Z,19.34
2018-05-24T00:37:28.241Z,19.37
2018-05-24T00:38:28.267Z,19.37
2018-05-24T00:39:28.305Z,19.37
2018-05-24T00:40:49.352Z,19.34
2018-05-24T00:41:28.366Z,19.32
2018-05-24T00:42:28.403Z,19.38
2018-05-24T00:43:28.474Z,19.38
2018-05-24T00:44:28.455Z,19.38
2018-05-24T00:45:28.494Z,19.29
2018-05-24T00:46:49.532Z,19.30
2018-05-24T00:47:28.564Z,19.29
2018-05-24T00:48:28.572Z,19.23
2018-05-24T00:49:28.614Z,19.26
2018-05-24T00:50:28.636Z,19.22
2018-05-24T00:51:28.680Z,19.22
2018-05-24T00:52:49.694Z,19.20
2018-05-24T00:53:28.716Z,19.20
2018-05-24T00:54:28.734Z,19.12
2018-05-24T00:55:28.782Z,19.16
2018-05-24T00:56:28.792Z,19.26
2018-05-24T00:57:28.839Z,19.26
2018-05-24T00:58:49.883Z,19.24
2018-05-24T00:59:28.907Z,19.29
2018-05-24T01:00:28.908Z,19.29
2018-05-24T01:01:28.962Z,19.19
2018-05-24T01:02:29.039Z,19.20
2018-05-24T01:03:29.004Z,19.26
2018-05-24T01:04:50.065Z,19.17
2018-05-24T01:05:29.070Z,19.24
2018-05-24T01:06:29.106Z,19.15
2018-05-24T01:07:29.169Z,19.22
2018-05-24T01:08:29.145Z,19.27
2018-05-24T01:09:29.184Z,19.19
2018-05-24T01:10:50.229Z,19.11
2018-05-24T01:11:29.244Z,19.11
2018-05-24T01:12:29.270Z,19.12
2018-05-24T01:13:29.321Z,19.11
2018-05-24T01:14:29.339Z,19.08
2018-05-24T01:15:29.376Z,19.08
2018-05-24T01:16:50.402Z,19.09
2018-05-24T01:17:29.411Z,18.92
2018-05-24T01:18:29.441Z,18.88
2018-05-24T01:19:29.479Z,18.82
2018-05-24T01:20:29.514Z,18.89
2018-05-24T01:21:29.523Z,18.88
2018-05-24T01:22:50.570Z,18.94
2018-05-24T01:23:29.583Z,18.81
2018-05-24T01:24:29.643Z,18.83
2018-05-24T01:25:29.765Z,18.96
2018-05-24T01:26:29.682Z,18.89
2018-05-24T01:27:29.787Z,18.92
2018-05-24T01:28:50.759Z,18.89
2018-05-24T01:29:29.768Z,18.91
2018-05-24T01:30:29.787Z,18.89
2018-05-24T01:31:29.814Z,18.89
2018-05-24T01:32:29.858Z,18.85
2018-05-24T01:33:29.879Z,19.04
2018-05-24T01:34:50.941Z,18.81
2018-05-24T01:35:29.944Z,18.96
2018-05-24T01:36:30.048Z,18.86
2018-05-24T01:37:29.991Z,18.86
2018-05-24T01:38:30.028Z,18.89
2018-05-24T01:39:30.083Z,18.82
2018-05-24T01:40:51.108Z,18.88
2018-05-24T01:41:30.104Z,18.85
2018-05-24T01:42:30.207Z,18.71
2018-05-24T01:43:30.171Z,18.70
2018-05-24T01:44:30.207Z,18.85
2018-05-24T01:45:30.247Z,18.85
2018-05-24T01:46:51.286Z,18.79
2018-05-24T01:47:30.312Z,18.71
2018-05-24T01:48:30.311Z,18.78
2018-05-24T01:49:30.345Z,18.88
2018-05-24T01:50:30.384Z,18.76
2018-05-24T01:51:30.397Z,18.82
2018-05-24T01:52:51.460Z,18.68
2018-05-24T01:53:30.474Z,18.68
2018-05-24T01:54:30.489Z,18.70
2018-05-24T01:55:30.523Z,18.67
2018-05-24T01:56:30.545Z,18.76
2018-05-24T01:57:30.577Z,18.76
2018-05-24T01:58:51.606Z,18.73
2018-05-24T01:59:30.622Z,18.64
2018-05-24T02:00:30.649Z,18.71
2018-05-24T02:01:30.712Z,18.70
2018-05-24T02:02:30.726Z,18.51
2018-05-24T02:03:30.752Z,18.49
2018-05-24T02:04:51.829Z,18.45
2018-05-24T02:05:30.803Z,18.53
2018-05-24T02:06:30.854Z,18.52
2018-05-24T02:07:30.858Z,18.46
2018-05-24T02:08:30.887Z,18.43
2018-05-24T02:09:30.912Z,18.63
2018-05-24T02:10:51.966Z,18.58
2018-05-24T02:11:30.982Z,18.45
2018-05-24T02:12:31.034Z,18.46
2018-05-24T02:13:31.025Z,18.45
2018-05-24T02:14:31.077Z,18.46
2018-05-24T02:15:31.110Z,18.58
2018-05-24T02:16:52.152Z,18.66
2018-05-24T02:17:31.157Z,18.55
2018-05-24T02:18:31.173Z,18.45
2018-05-24T02:19:31.209Z,18.55
2018-05-24T02:20:31.226Z,18.63
2018-05-24T02:21:31.258Z,18.63
2018-05-24T02:22:52.301Z,18.42
2018-05-24T02:23:31.314Z,18.41
2018-05-24T02:24:31.346Z,18.41
2018-05-24T02:25:31.391Z,18.37
2018-05-24T02:26:31.412Z,18.43
2018-05-24T02:27:31.437Z,18.33
2018-05-24T02:28:52.468Z,18.34
2018-05-24T02:29:31.498Z,18.27
2018-05-24T02:30:31.526Z,18.27
2018-05-24T02:31:31.542Z,18.27
2018-05-24T02:32:31.572Z,18.26
2018-05-24T02:33:31.630Z,18.24
2018-05-24T02:34:52.656Z,18.34
2018-05-24T02:35:31.659Z,18.34
2018-05-24T02:36:31.814Z,18.28
2018-05-24T02:37:31.740Z,18.34
2018-05-24T02:38:31.766Z,18.33
2018-05-24T02:39:31.774Z,18.33
2018-05-24T02:40:52.833Z,18.34
2018-05-24T02:41:31.847Z,18.31
2018-05-24T02:42:31.928Z,18.36
2018-05-24T02:43:31.896Z,18.18
2018-05-24T02:44:31.923Z,18.27
2018-05-24T02:45:31.944Z,18.27
2018-05-24T02:46:53.003Z,18.34
2018-05-24T02:47:32.099Z,18.28
2018-05-24T02:48:32.032Z,18.30
2018-05-24T02:49:32.129Z,18.21
2018-05-24T02:50:32.100Z,17.95
2018-05-24T02:51:32.121Z,18.09
2018-05-24T02:52:53.200Z,18.05
2018-05-24T02:53:32.177Z,18.03
2018-05-24T02:54:32.212Z,18.15
2018-05-24T02:55:32.240Z,18.26
2018-05-24T02:56:32.282Z,18.28
2018-05-24T02:57:32.294Z,18.13
2018-05-24T02:58:53.341Z,18.08
2018-05-24T02:59:32.351Z,18.02
2018-05-24T03:00:32.393Z,17.94
2018-05-24T03:01:32.406Z,18.08
2018-05-24T03:02:32.446Z,18.15
2018-05-24T03:03:32.530Z,18.02
2018-05-24T03:04:53.512Z,18.08
2018-05-24T03:05:32.526Z,18.03
2018-05-24T03:06:32.578Z,17.95
2018-05-24T03:07:32.594Z,18.02
2018-05-24T03:08:32.610Z,18.00
2018-05-24T03:09:32.644Z,18.06
2018-05-24T03:10:53.680Z,18.08
2018-05-24T03:11:32.700Z,18.08
2018-05-24T03:12:32.728Z,18.16
2018-05-24T03:13:32.746Z,18.21
2018-05-24T03:14:32.782Z,18.00
2018-05-24T03:15:32.818Z,18.02
2018-05-24T03:16:53.861Z,18.00
2018-05-24T03:17:32.876Z,17.98
2018-05-24T03:18:32.894Z,17.95
2018-05-24T03:19:32.930Z,18.06
2018-05-24T03:20:32.946Z,17.94
2018-05-24T03:21:32.976Z,18.06
2018-05-24T03:22:54.021Z,18.03
2018-05-24T03:23:33.060Z,17.97
2018-05-24T03:24:33.116Z,18.03
2018-05-24T03:25:33.104Z,17.97
2018-05-24T03:26:33.129Z,18.13
2018-05-24T03:27:33.162Z,18.11
2018-05-24T03:28:54.204Z,18.16
2018-05-24T03:29:33.239Z,18.13
2018-05-24T03:30:33.237Z,18.02
2018-05-24T03:31:33.267Z,18.09
2018-05-24T03:32:33.305Z,18.03
2018-05-24T03:33:33.324Z,18.11
2018-05-24T03:34:54.381Z,18.00
2018-05-24T03:35:33.382Z,18.00
2018-05-24T03:36:33.414Z,18.03
2018-05-24T03:37:33.449Z,17.93
2018-05-24T03:38:33.474Z,18.02
2018-05-24T03:39:33.513Z,18.00
2018-05-24T03:40:54.547Z,17.95
2018-05-24T03:41:33.547Z,17.93
2018-05-24T03:42:33.586Z,17.91
2018-05-24T03:43:33.627Z,18.00
2018-05-24T03:44:33.629Z,18.02
2018-05-24T03:45:33.661Z,18.06
2018-05-24T03:46:54.711Z,17.94
2018-05-24T03:47:33.881Z,18.03
2018-05-24T03:48:33.755Z,17.98
2018-05-24T03:49:33.787Z,18.00
2018-05-24T03:50:33.811Z,17.98
2018-05-24T03:51:33.887Z,17.95
2018-05-24T03:52:54.930Z,17.93
2018-05-24T03:53:33.935Z,17.94
2018-05-24T03:54:33.947Z,17.98
2018-05-24T03:55:33.953Z,17.94
2018-05-24T03:56:33.980Z,18.00
2018-05-24T03:57:33.999Z,17.95
2018-05-24T03:58:55.067Z,18.00
2018-05-24T03:59:34.065Z,18.00
2018-05-24T04:00:34.087Z,18.05
2018-05-24T04:01:34.127Z,18.06
2018-05-24T04:02:34.211Z,18.03
2018-05-24T04:03:34.176Z,18.09
2018-05-24T04:04:55.223Z,18.13
2018-05-24T04:05:34.263Z,17.94
2018-05-24T04:06:34.269Z,18.09
2018-05-24T04:07:34.297Z,17.93
2018-05-24T04:08:34.309Z,18.08
2018-05-24T04:09:34.440Z,18.03
2018-05-24T04:10:55.393Z,18.02
2018-05-24T04:11:34.413Z,18.02
2018-05-24T04:12:34.445Z,18.11
2018-05-24T04:13:34.493Z,18.06
2018-05-24T04:14:34.489Z,18.03
2018-05-24T04:15:34.531Z,18.03
2018-05-24T04:16:55.566Z,17.97
2018-05-24T04:17:34.575Z,18.09
2018-05-24T04:18:34.623Z,18.16
2018-05-24T04:19:34.641Z,18.24
2018-05-24T04:20:34.668Z,18.13
2018-05-24T04:21:34.687Z,18.26
2018-05-24T04:22:55.737Z,18.11
2018-05-24T04:23:34.764Z,18.09
2018-05-24T04:24:34.774Z,18.03
2018-05-24T04:25:34.818Z,18.08
2018-05-24T04:26:34.844Z,18.11
2018-05-24T04:27:34.886Z,18.16
2018-05-24T04:28:55.953Z,18.09
2018-05-24T04:29:34.911Z,18.13
2018-05-24T04:30:35.108Z,18.02
2018-05-24T04:31:34.985Z,18.12
2018-05-24T04:32:34.992Z,18.09
2018-05-24T04:33:35.032Z,18.16
2018-05-24T04:34:56.085Z,18.26
2018-05-24T04:35:35.083Z,18.21
2018-05-24T04:36:35.124Z,18.19
2018-05-24T04:37:35.158Z,18.11
2018-05-24T04:38:35.177Z,17.95
2018-05-24T04:39:35.289Z,17.95
2018-05-24T04:40:56.256Z,17.94
2018-05-24T04:41:35.259Z,18.09
2018-05-24T04:42:35.289Z,18.09
2018-05-24T04:43:35.327Z,18.03
2018-05-24T04:44:35.383Z,18.00
2018-05-24T04:45:35.413Z,18.12
2018-05-24T04:46:56.418Z,18.06
2018-05-24T04:47:35.433Z,18.02
2018-05-24T04:48:35.462Z,18.05
2018-05-24T04:49:36.435Z,18.09
2018-05-24T04:50:35.520Z,18.23
2018-05-24T04:51:35.538Z,18.28
2018-05-24T04:52:56.592Z,18.28
2018-05-24T04:53:35.613Z,18.27
2018-05-24T04:54:35.657Z,18.31
2018-05-24T04:55:35.666Z,18.27
2018-05-24T04:56:35.699Z,18.24
2018-05-24T04:57:35.715Z,18.16
2018-05-24T04:58:56.776Z,18.23
2018-05-24T04:59:35.786Z,18.18
2018-05-24T05:00:36.448Z,18.15
2018-05-24T05:01:35.914Z,18.18
2018-05-24T05:02:35.909Z,18.08
2018-05-24T05:03:35.889Z,18.18
2018-05-24T05:04:56.928Z,18.18
2018-05-24T05:05:35.946Z,18.08
2018-05-24T05:06:35.981Z,18.18
2018-05-24T05:07:36.018Z,18.03
2018-05-24T05:08:36.054Z,18.06
2018-05-24T05:09:36.090Z,18.03
2018-05-24T05:10:57.113Z,17.94
2018-05-24T05:11:36.205Z,18.08
2018-05-24T05:12:36.153Z,17.91
2018-05-24T05:13:36.198Z,17.95
2018-05-24T05:14:36.270Z,18.08
2018-05-24T05:15:36.296Z,18.18
2018-05-24T05:16:57.290Z,18.18
2018-05-24T05:17:36.305Z,18.02
2018-05-24T05:18:36.323Z,18.13
2018-05-24T05:19:36.398Z,18.26
2018-05-24T05:20:36.421Z,18.31
2018-05-24T05:21:36.405Z,18.28
2018-05-24T05:22:57.458Z,18.24
2018-05-24T05:23:36.477Z,18.28
2018-05-24T05:24:36.573Z,18.34
2018-05-24T05:25:36.534Z,18.37
2018-05-24T05:26:36.558Z,18.45
2018-05-24T05:27:36.610Z,18.48
2018-05-24T05:28:57.643Z,18.36
2018-05-24T05:29:36.657Z,18.30
2018-05-24T05:30:36.723Z,18.15
2018-05-24T05:31:36.696Z,18.21
2018-05-24T05:32:36.760Z,18.16
2018-05-24T05:33:36.773Z,18.02
2018-05-24T05:34:57.839Z,17.93
2018-05-24T05:35:36.819Z,17.90
2018-05-24T05:36:36.820Z,17.87
2018-05-24T05:37:36.878Z,17.79
2018-05-24T05:38:36.914Z,17.80
2018-05-24T05:39:36.926Z,17.84
2018-05-24T05:40:57.974Z,17.73
2018-05-24T05:41:36.976Z,17.65
2018-05-24T05:42:37.015Z,17.91
2018-05-24T05:43:37.056Z,18.02
2018-05-24T05:44:37.139Z,17.91
2018-05-24T05:45:37.126Z,17.88
2018-05-24T05:46:58.135Z,17.95
2018-05-24T05:47:37.187Z,18.03
2018-05-24T05:48:37.227Z,18.11
2018-05-24T05:49:37.208Z,17.98
2018-05-24T05:50:37.267Z,18.02
2018-05-24T05:51:37.282Z,18.11
2018-05-24T05:52:58.397Z,17.97
2018-05-24T05:53:37.338Z,17.98
2018-05-24T05:54:37.357Z,18.06
2018-05-24T05:55:37.396Z,18.05
2018-05-24T05:56:37.418Z,18.05
2018-05-24T05:57:37.627Z,18.06
2018-05-24T05:58:58.489Z,17.93
2018-05-24T05:59:37.533Z,17.93
2018-05-24T06:00:37.512Z,17.93
2018-05-24T06:01:37.618Z,17.98
2018-05-24T06:02:37.603Z,17.93
2018-05-24T06:03:37.687Z,18.05
2018-05-24T06:04:58.700Z,17.98
2018-05-24T06:05:37.672Z,18.06
2018-05-24T06:06:37.735Z,18.06
2018-05-24T06:07:37.722Z,18.18
2018-05-24T06:08:37.754Z,18.27
2018-05-24T06:09:38.032Z,18.24
2018-05-24T06:10:58.828Z,18.08
2018-05-24T06:11:37.840Z,18.06
2018-05-24T06:12:37.861Z,18.21
2018-05-24T06:13:37.947Z,18.15
2018-05-24T06:14:37.919Z,18.27
2018-05-24T06:15:37.947Z,18.28
2018-05-24T06:16:58.999Z,18.18
2018-05-24T06:17:38.014Z,18.18
2018-05-24T06:18:38.055Z,18.31
2018-05-24T06:19:38.090Z,18.41
2018-05-24T06:20:38.210Z,18.45
2018-05-24T06:21:38.238Z,18.61
2018-05-24T06:22:59.207Z,18.67
2018-05-24T06:23:38.192Z,18.74
2018-05-24T06:24:38.254Z,18.79
2018-05-24T06:25:38.255Z,18.68
2018-05-24T06:26:38.336Z,18.70
2018-05-24T06:27:38.284Z,18.71
2018-05-24T06:28:59.353Z,18.70
2018-05-24T06:29:38.365Z,18.45
2018-05-24T06:30:38.438Z,18.45
2018-05-24T06:31:38.427Z,18.43
2018-05-24T06:32:38.444Z,18.41
2018-05-24T06:33:38.487Z,18.45
2018-05-24T06:34:59.526Z,18.55
2018-05-24T06:35:38.604Z,18.52
2018-05-24T06:36:38.559Z,18.52
2018-05-24T06:37:38.672Z,18.51
2018-05-24T06:38:38.692Z,18.61
2018-05-24T06:39:38.698Z,18.64
2018-05-24T06:40:59.728Z,18.60
2018-05-24T06:41:38.694Z,18.73
2018-05-24T06:42:38.735Z,18.73
2018-05-24T06:43:38.783Z,18.64
2018-05-24T06:44:38.797Z,18.64
2018-05-24T06:45:38.813Z,18.64
2018-05-24T06:46:59.894Z,18.63
2018-05-24T06:47:38.869Z,18.68
2018-05-24T06:48:38.890Z,18.66
2018-05-24T06:49:38.921Z,18.70
2018-05-24T06:50:38.951Z,18.73
2018-05-24T06:51:38.980Z,18.73
2018-05-24T06:53:00.058Z,18.60
2018-05-24T06:53:39.087Z,18.60
2018-05-24T06:54:39.076Z,18.66
2018-05-24T06:55:39.109Z,18.64
2018-05-24T06:56:39.125Z,18.61
2018-05-24T06:57:39.153Z,18.61
2018-05-24T06:59:00.348Z,18.67
2018-05-24T06:59:39.228Z,18.70
2018-05-24T07:00:39.294Z,18.73
2018-05-24T07:01:39.287Z,18.85
2018-05-24T07:02:39.296Z,19.04
2018-05-24T07:03:39.327Z,19.24
2018-05-24T07:05:00.388Z,19.22
2018-05-24T07:05:39.381Z,19.17
2018-05-24T07:06:39.415Z,19.24
2018-05-24T07:07:39.464Z,19.20
2018-05-24T07:08:39.483Z,19.26
2018-05-24T07:09:39.511Z,19.29
2018-05-24T07:11:00.626Z,19.37
2018-05-24T07:11:39.561Z,19.45
2018-05-24T07:12:39.592Z,19.53
2018-05-24T07:13:39.627Z,19.55
2018-05-24T07:14:39.647Z,19.42
2018-05-24T07:15:39.667Z,19.29
2018-05-24T07:17:00.726Z,19.29
2018-05-24T07:17:39.740Z,19.38
2018-05-24T07:18:39.859Z,19.42
2018-05-24T07:19:39.795Z,19.55
2018-05-24T07:20:39.817Z,19.64
2018-05-24T07:21:39.853Z,19.81
2018-05-24T07:23:00.914Z,19.87
2018-05-24T07:23:39.899Z,19.82
2018-05-24T07:24:39.943Z,19.87
2018-05-24T07:25:39.996Z,19.89
2018-05-24T07:26:40.016Z,19.92
2018-05-24T07:27:40.026Z,19.85
2018-05-24T07:29:01.080Z,19.77
2018-05-24T07:29:40.065Z,19.74
2018-05-24T07:30:40.117Z,19.74
2018-05-24T07:31:40.134Z,19.99
2018-05-24T07:32:40.192Z,20.14
2018-05-24T07:33:40.228Z,20.12
2018-05-24T07:35:01.244Z,20.10
2018-05-24T07:35:40.277Z,20.11
2018-05-24T07:36:40.293Z,20.08
2018-05-24T07:37:40.410Z,20.11
2018-05-24T07:38:40.336Z,20.08
2018-05-24T07:39:40.385Z,20.12
2018-05-24T07:41:01.412Z,20.26
2018-05-24T07:41:40.427Z,20.42
2018-05-24T07:42:40.491Z,20.42
2018-05-24T07:43:40.472Z,20.42
2018-05-24T07:44:40.541Z,20.27
2018-05-24T07:45:40.634Z,20.18
2018-05-24T07:47:01.592Z,20.26
2018-05-24T07:47:40.607Z,20.21
2018-05-24T07:48:40.639Z,20.22
2018-05-24T07:49:40.664Z,20.37
2018-05-24T07:50:40.701Z,20.44
2018-05-24T07:51:40.737Z,20.44
2018-05-24T07:53:01.877Z,20.42
2018-05-24T07:53:40.772Z,20.50
2018-05-24T07:54:40.820Z,20.66
2018-05-24T07:55:40.829Z,20.64
2018-05-24T07:56:40.875Z,20.60
2018-05-24T07:57:40.908Z,20.56
2018-05-24T07:59:01.952Z,20.44
2018-05-24T07:59:40.955Z,20.36
2018-05-24T08:00:40.994Z,20.33
2018-05-24T08:01:41.047Z,20.39
2018-05-24T08:02:41.053Z,20.24
2018-05-24T08:03:41.064Z,20.11
2018-05-24T08:05:02.124Z,20.12
2018-05-24T08:05:41.130Z,20.10
2018-05-24T08:06:41.176Z,20.03
2018-05-24T08:07:41.186Z,20.10
2018-05-24T08:08:41.296Z,20.12
2018-05-24T08:09:41.235Z,20.18
2018-05-24T08:11:02.300Z,20.21
2018-05-24T08:11:41.325Z,20.22
2018-05-24T08:12:41.351Z,20.37
2018-05-24T08:13:41.363Z,20.42
2018-05-24T08:14:41.427Z,20.53
2018-05-24T08:15:41.422Z,20.40
2018-05-24T08:17:02.473Z,20.48
2018-05-24T08:17:41.487Z,20.44
2018-05-24T08:18:41.516Z,20.55
2018-05-24T08:19:41.594Z,20.52
2018-05-24T08:20:41.594Z,20.60
2018-05-24T08:21:41.656Z,20.56
2018-05-24T08:23:02.994Z,20.48
2018-05-24T08:23:42.838Z,20.50
2018-05-24T08:24:41.723Z,20.58
2018-05-24T08:25:41.741Z,20.59
2018-05-24T08:26:41.831Z,20.60
2018-05-24T08:27:41.791Z,20.68
2018-05-24T08:29:02.829Z,20.71
2018-05-24T08:29:41.836Z,20.78
2018-05-24T08:30:41.993Z,20.85
2018-05-24T08:31:41.932Z,20.71
2018-05-24T08:32:41.915Z,20.80
2018-05-24T08:33:42.018Z,20.96
2018-05-24T08:35:03.018Z,20.98
2018-05-24T08:35:42.046Z,20.93
2018-05-24T08:36:42.056Z,21.01
2018-05-24T08:37:42.117Z,21.10
2018-05-24T08:38:42.099Z,21.17
2018-05-24T08:39:42.136Z,21.23
2018-05-24T08:41:03.195Z,21.40
2018-05-24T08:41:42.220Z,21.47
2018-05-24T08:42:42.246Z,21.48
2018-05-24T08:43:42.292Z,21.60
2018-05-24T08:44:42.395Z,21.37
2018-05-24T08:45:42.306Z,21.48
2018-05-24T08:47:03.373Z,21.47
2018-05-24T08:47:42.375Z,21.44
2018-05-24T08:48:42.412Z,21.47
2018-05-24T08:49:42.430Z,21.59
2018-05-24T08:50:42.466Z,21.72
2018-05-24T08:51:42.489Z,21.81
2018-05-24T08:53:03.547Z,21.84
2018-05-24T08:53:42.566Z,21.81
2018-05-24T08:54:42.581Z,21.91
2018-05-24T08:55:42.654Z,21.89
2018-05-24T08:56:42.634Z,21.75
2018-05-24T08:57:42.702Z,21.62
2018-05-24T08:59:03.794Z,21.70
2018-05-24T08:59:42.717Z,21.96
2018-05-24T09:00:42.756Z,22.06
2018-05-24T09:01:42.794Z,22.15
2018-05-24T09:02:42.914Z,22.10
2018-05-24T09:03:42.849Z,22.23
2018-05-24T09:05:03.893Z,22.16
2018-05-24T09:05:42.933Z,22.31
2018-05-24T09:06:42.932Z,22.37
2018-05-24T09:07:42.970Z,22.58
2018-05-24T09:08:42.994Z,22.70
2018-05-24T09:09:43.040Z,22.51
2018-05-24T09:11:04.080Z,22.46
2018-05-24T09:11:43.095Z,22.56
2018-05-24T09:12:43.117Z,22.55
2018-05-24T09:13:43.138Z,22.55
2018-05-24T09:14:43.184Z,22.63
2018-05-24T09:15:43.194Z,22.51
2018-05-24T09:17:04.339Z,22.37
2018-05-24T09:17:43.300Z,22.49
2018-05-24T09:18:43.304Z,22.49
2018-05-24T09:19:43.319Z,22.59
2018-05-24T09:20:43.378Z,22.46
2018-05-24T09:21:43.389Z,22.65
2018-05-24T09:23:04.430Z,22.77
2018-05-24T09:23:43.433Z,22.77
2018-05-24T09:24:43.488Z,22.73
2018-05-24T09:25:43.505Z,22.88
2018-05-24T09:26:43.540Z,22.78
2018-05-24T09:27:43.573Z,22.76
2018-05-24T09:29:04.611Z,22.76
2018-05-24T09:29:43.619Z,22.89
2018-05-24T09:30:43.655Z,22.84
2018-05-24T09:31:43.681Z,22.83
2018-05-24T09:32:43.715Z,22.76
2018-05-24T09:33:43.747Z,22.78
2018-05-24T09:35:04.797Z,22.76
2018-05-24T09:35:43.859Z,22.83
2018-05-24T09:36:43.833Z,23.04
2018-05-24T09:37:43.851Z,23.14
2018-05-24T09:38:43.892Z,22.96
2018-05-24T09:39:43.970Z,23.20
2018-05-24T09:41:04.987Z,23.18
2018-05-24T09:41:43.987Z,23.13
2018-05-24T09:42:44.045Z,23.11
2018-05-24T09:43:44.054Z,23.14
2018-05-24T09:44:44.123Z,23.23
2018-05-24T09:45:44.125Z,23.59
2018-05-24T09:47:05.162Z,23.70
2018-05-24T09:47:44.185Z,23.70
2018-05-24T09:48:44.197Z,23.79
2018-05-24T09:49:44.238Z,23.74
2018-05-24T09:50:44.264Z,23.86
2018-05-24T09:51:44.314Z,23.48
2018-05-24T09:53:05.360Z,23.52
2018-05-24T09:53:44.355Z,23.56
2018-05-24T09:54:44.445Z,23.81
2018-05-24T09:55:44.505Z,23.84
2018-05-24T09:56:44.450Z,23.63
2018-05-24T09:57:44.497Z,23.62
2018-05-24T09:59:05.513Z,24.04
2018-05-24T09:59:44.558Z,24.34
2018-05-24T10:00:44.565Z,24.47
2018-05-24T10:01:44.628Z,24.38
2018-05-24T10:02:44.626Z,24.28
2018-05-24T10:03:44.710Z,24.51
2018-05-24T10:05:05.718Z,24.62
2018-05-24T10:05:44.720Z,24.65
2018-05-24T10:06:44.737Z,24.47
2018-05-24T10:07:44.775Z,24.50
2018-05-24T10:08:44.813Z,24.69
2018-05-24T10:09:44.842Z,24.81
2018-05-24T10:11:05.898Z,24.92
2018-05-24T10:11:44.910Z,25.19
2018-05-24T10:12:44.943Z,25.33
2018-05-24T10:13:44.964Z,25.26
2018-05-24T10:14:45.005Z,25.51
2018-05-24T10:15:45.036Z,25.29
2018-05-24T10:17:06.091Z,25.51
2018-05-24T10:17:45.140Z,25.26
2018-05-24T10:18:45.111Z,25.63
2018-05-24T10:19:45.145Z,25.77
2018-05-24T10:20:45.189Z,25.51
2018-05-24T10:21:45.226Z,26.08
2018-05-24T10:25:49.498Z,26.73
2018-05-24T10:26:49.525Z,26.86
2018-05-24T10:27:49.568Z,27.20
2018-05-24T10:28:49.599Z,27.05
2018-05-24T10:29:49.651Z,27.18
2018-05-24T10:31:10.677Z,27.50
2018-05-24T10:31:49.695Z,26.73
2018-05-24T10:32:49.728Z,26.13
2018-05-24T10:33:49.804Z,26.01
2018-05-24T10:34:49.782Z,25.59
2018-05-24T10:35:49.823Z,25.63
2018-05-24T10:37:10.904Z,25.63
2018-05-24T10:37:49.914Z,26.19
2018-05-24T10:38:49.951Z,26.34
2018-05-24T10:39:49.955Z,26.16
2018-05-24T10:40:49.985Z,26.30
2018-05-24T10:41:50.002Z,26.53
2018-05-24T10:43:11.065Z,27.26
2018-05-24T10:43:50.081Z,26.45
2018-05-24T10:44:50.155Z,26.52
2018-05-24T10:45:50.197Z,26.78
2018-05-24T10:46:50.174Z,26.66
2018-05-24T10:47:50.352Z,26.36
2018-05-24T10:49:11.262Z,25.96
2018-05-24T10:49:50.295Z,25.95
2018-05-24T10:50:50.312Z,25.91
2018-05-24T10:51:50.342Z,25.93
2018-05-24T10:52:50.375Z,26.39
2018-05-24T10:53:50.408Z,26.63
2018-05-24T10:55:11.469Z,26.86
2018-05-24T10:55:50.466Z,27.11
2018-05-24T10:56:50.671Z,27.03
2018-05-24T10:57:50.543Z,27.01
2018-05-24T10:58:50.594Z,26.73
2018-05-24T10:59:50.601Z,27.10
2018-05-24T11:01:11.663Z,27.23
2018-05-24T11:01:50.678Z,27.57
2018-05-24T11:02:50.709Z,27.47
2018-05-24T11:03:50.751Z,27.25
2018-05-24T11:04:50.777Z,26.74
2018-05-24T11:05:50.808Z,26.98
2018-05-24T11:07:11.933Z,27.13
2018-05-24T11:07:50.879Z,27.16
2018-05-24T11:08:50.910Z,27.33
2018-05-24T11:09:50.950Z,27.25
2018-05-24T11:10:50.976Z,27.60
2018-05-24T11:11:51.025Z,27.18
2018-05-24T11:13:12.069Z,26.98
2018-05-24T11:13:51.081Z,27.05
2018-05-24T11:14:51.116Z,27.19
2018-05-24T11:15:51.176Z,27.44
2018-05-24T11:16:51.195Z,27.43
2018-05-24T11:17:51.217Z,27.44
2018-05-24T11:19:12.297Z,27.48
2018-05-24T11:19:51.313Z,27.45
2018-05-24T11:20:51.337Z,27.30
2018-05-24T11:21:51.373Z,27.60
2018-05-24T11:22:51.394Z,27.19
2018-05-24T11:23:51.444Z,27.40
2018-05-24T11:25:12.503Z,27.61
2018-05-24T11:25:51.512Z,26.71
2018-05-24T11:26:51.558Z,26.82
2018-05-24T11:27:51.577Z,26.63
2018-05-24T11:28:51.608Z,26.39
2018-05-24T11:29:51.655Z,26.45
2018-05-24T11:31:12.690Z,26.18
2018-05-24T11:31:51.740Z,25.98
2018-05-24T11:32:51.823Z,26.18
2018-05-24T11:33:51.768Z,26.18
2018-05-24T11:34:51.819Z,26.26
2018-05-24T11:35:51.836Z,26.24
2018-05-24T11:37:13.008Z,25.96
2018-05-24T11:37:51.913Z,25.73
2018-05-24T11:38:51.941Z,25.76
2018-05-24T11:39:52.087Z,25.63
2018-05-24T11:40:52.013Z,25.70
2018-05-24T11:41:52.106Z,25.61
2018-05-24T11:43:13.195Z,25.73
2018-05-24T11:43:53.092Z,25.77
2018-05-24T11:44:52.124Z,25.88
2018-05-24T11:45:52.161Z,25.88
2018-05-24T11:46:52.218Z,25.71
2018-05-24T11:47:52.247Z,25.74
2018-05-24T11:49:13.284Z,25.61
2018-05-24T11:49:52.293Z,25.43
2018-05-24T11:50:52.390Z,25.43
2018-05-24T11:51:52.368Z,25.29
2018-05-24T11:52:52.403Z,25.31
2018-05-24T11:53:52.480Z,25.19
2018-05-24T11:55:13.494Z,25.06
2018-05-24T11:55:52.482Z,25.14
2018-05-24T11:56:52.526Z,25.01
2018-05-24T11:57:52.563Z,25.09
2018-05-24T11:58:52.610Z,24.97
2018-05-24T11:59:52.638Z,24.89
2018-05-24T12:01:13.684Z,24.82
2018-05-24T12:01:52.772Z,24.81
2018-05-24T12:02:52.745Z,24.79
2018-05-24T12:03:52.745Z,24.62
2018-05-24T12:04:52.780Z,24.66
2018-05-24T12:05:52.819Z,24.69
2018-05-24T12:07:13.898Z,24.50
2018-05-24T12:07:52.876Z,24.48
2018-05-24T12:08:52.914Z,24.69
2018-05-24T12:09:52.973Z,24.36
2018-05-24T12:10:52.960Z,24.36
2018-05-24T12:11:53.015Z,24.41
2018-05-24T12:13:14.062Z,24.32
2018-05-24T12:13:53.059Z,24.40
2018-05-24T12:14:53.089Z,24.47
2018-05-24T12:15:53.131Z,24.47
2018-05-24T12:16:53.164Z,24.51
2018-05-24T12:17:53.188Z,24.61
2018-05-24T12:19:14.289Z,24.65
2018-05-24T12:19:53.273Z,24.65
2018-05-24T12:20:53.290Z,24.65
2018-05-24T12:21:53.309Z,24.55
2018-05-24T12:22:53.349Z,24.62
2018-05-24T12:23:53.396Z,24.56
2018-05-24T12:25:15.219Z,24.69
2018-05-24T12:25:53.486Z,24.68
2018-05-24T12:26:53.490Z,24.69
2018-05-24T12:27:53.529Z,24.68
2018-05-24T12:28:53.552Z,24.58
2018-05-24T12:29:53.569Z,24.55
2018-05-24T12:31:14.610Z,24.58
2018-05-24T12:31:53.623Z,24.65
2018-05-24T12:32:53.674Z,24.65
2018-05-24T12:33:53.709Z,24.63
2018-05-24T12:34:53.717Z,24.74
2018-05-24T12:35:53.756Z,24.53
2018-05-24T12:37:14.810Z,24.58
2018-05-24T12:37:53.824Z,24.66
2018-05-24T12:38:53.880Z,24.63
2018-05-24T12:39:53.985Z,24.59
2018-05-24T12:40:53.920Z,24.66
2018-05-24T12:41:54.039Z,24.65
2018-05-24T12:43:15.002Z,24.69
2018-05-24T12:43:54.004Z,24.74
2018-05-24T12:44:54.044Z,24.66
2018-05-24T12:45:54.065Z,24.69
2018-05-24T12:46:54.101Z,24.68
2018-05-24T12:47:54.124Z,24.65
2018-05-24T12:49:15.181Z,24.62
2018-05-24T12:49:54.193Z,24.78
2018-05-24T12:50:54.302Z,24.81
2018-05-24T12:51:54.257Z,24.74
2018-05-24T12:52:54.302Z,24.79
2018-05-24T12:53:54.320Z,24.75
2018-05-24T12:55:15.366Z,24.77
2018-05-24T12:55:54.373Z,24.78